sensor_id;sensor_type;location;lat;lon;timestamp;temperature;humidity
56869;DHT22;42754;0.000;0.000;2023-04-03T00:01:19;3.60;99.90
56869;DHT22;42754;0.000;0.000;2023-04-03T00:03:45;3.70;99.90
56869;DHT22;42754;0.000;0.000;2023-04-03T00:06:11;3.70;99.90
56869;DHT22;42754;0.000;0.000;2023-04-03T00:08:39;3.70;99.90
56869;DHT22;42754;0.000;0.000;2023-04-03T00:11:05;3.80;99.90
56869;DHT22;42754;0.000;0.000;2023-04-03T00:13:31;3.80;99.90
56869;DHT22;42754;0.000;0.000;2023-04-03T00:15:57;3.70;99.90
56869;DHT22;42754;0.000;0.000;2023-04-03T00:18:23;3.80;99.90
56869;DHT22;42754;0.000;0.000;2023-04-03T00:20:49;3.70;99.90
56869;DHT22;42754;0.000;0.000;2023-04-03T00:23:15;3.80;99.90
56869;DHT22;42754;0.000;0.000;2023-04-03T00:25:40;3.70;99.90
56869;DHT22;42754;0.000;0.000;2023-04-03T00:28:06;3.70;99.90
56869;DHT22;42754;0.000;0.000;2023-04-03T00:30:32;3.80;99.90
56869;DHT22;42754;0.000;0.000;2023-04-03T00:32:58;3.70;99.90
56869;DHT22;42754;0.000;0.000;2023-04-03T00:35:24;3.70;99.90
56869;DHT22;42754;0.000;0.000;2023-04-03T00:37:53;3.70;99.90
56869;DHT22;42754;0.000;0.000;2023-04-03T00:40:19;3.70;99.90
56869;DHT22;42754;0.000;0.000;2023-04-03T00:42:46;3.60;99.90
56869;DHT22;42754;0.000;0.000;2023-04-03T00:47:50;3.60;99.90
56869;DHT22;42754;0.000;0.000;2023-04-03T00:50:16;3.50;99.90
56869;DHT22;42754;0.000;0.000;2023-04-03T00:52:43;3.60;99.90
56869;DHT22;42754;0.000;0.000;2023-04-03T00:55:11;3.60;99.90
56869;DHT22;42754;0.000;0.000;2023-04-03T00:57:38;3.50;99.90
56869;DHT22;42754;0.000;0.000;2023-04-03T01:00:05;3.50;99.90
56869;DHT22;42754;0.000;0.000;2023-04-03T01:02:34;3.50;99.90
56869;DHT22;42754;0.000;0.000;2023-04-03T01:05:00;3.50;99.90
56869;DHT22;42754;0.000;0.000;2023-04-03T01:07:26;3.50;99.90
56869;DHT22;42754;0.000;0.000;2023-04-03T01:09:54;3.40;99.90
56869;DHT22;42754;0.000;0.000;2023-04-03T01:14:55;3.40;99.90
56869;DHT22;42754;0.000;0.000;2023-04-03T01:20:21;3.30;99.90
56869;DHT22;42754;0.000;0.000;2023-04-03T01:22:41;3.30;99.90
56869;DHT22;42754;0.000;0.000;2023-04-03T01:25:09;3.20;99.90
56869;DHT22;42754;0.000;0.000;2023-04-03T01:27:35;3.20;99.90
56869;DHT22;42754;0.000;0.000;2023-04-03T01:30:00;3.20;99.90
56869;DHT22;42754;0.000;0.000;2023-04-03T01:32:26;3.20;99.90
56869;DHT22;42754;0.000;0.000;2023-04-03T01:34:51;3.10;99.90
56869;DHT22;42754;0.000;0.000;2023-04-03T01:37:20;3.20;99.90
56869;DHT22;42754;0.000;0.000;2023-04-03T01:39:45;3.10;99.90
56869;DHT22;42754;0.000;0.000;2023-04-03T01:42:11;3.10;99.90
56869;DHT22;42754;0.000;0.000;2023-04-03T01:44:37;3.10;99.90
56869;DHT22;42754;0.000;0.000;2023-04-03T01:47:05;3.00;99.90
56869;DHT22;42754;0.000;0.000;2023-04-03T01:49:30;2.90;99.90
56869;DHT22;42754;0.000;0.000;2023-04-03T01:51:56;2.80;99.90
56869;DHT22;42754;0.000;0.000;2023-04-03T01:54:22;2.70;99.90
56869;DHT22;42754;0.000;0.000;2023-04-03T01:56:47;2.70;99.90
56869;DHT22;42754;0.000;0.000;2023-04-03T01:59:13;2.60;99.90
56869;DHT22;42754;0.000;0.000;2023-04-03T02:01:38;2.50;99.90
56869;DHT22;42754;0.000;0.000;2023-04-03T02:04:04;2.50;99.90
56869;DHT22;42754;0.000;0.000;2023-04-03T02:06:30;2.60;99.90
56869;DHT22;42754;0.000;0.000;2023-04-03T02:08:56;2.60;99.90
56869;DHT22;42754;0.000;0.000;2023-04-03T02:11:22;2.50;99.90
56869;DHT22;42754;0.000;0.000;2023-04-03T02:13:49;2.40;99.90
56869;DHT22;42754;0.000;0.000;2023-04-03T02:16:15;2.40;99.90
56869;DHT22;42754;0.000;0.000;2023-04-03T02:18:41;2.40;99.90
56869;DHT22;42754;0.000;0.000;2023-04-03T02:21:06;2.40;99.90
56869;DHT22;42754;0.000;0.000;2023-04-03T02:23:32;2.30;99.90
56869;DHT22;42754;0.000;0.000;2023-04-03T02:26:08;2.40;99.90
56869;DHT22;42754;0.000;0.000;2023-04-03T02:28:34;2.30;99.90
56869;DHT22;42754;0.000;0.000;2023-04-03T02:31:00;2.40;99.90
56869;DHT22;42754;0.000;0.000;2023-04-03T02:33:26;2.30;99.90
56869;DHT22;42754;0.000;0.000;2023-04-03T02:35:53;2.30;99.90
56869;DHT22;42754;0.000;0.000;2023-04-03T02:38:18;2.30;99.90
56869;DHT22;42754;0.000;0.000;2023-04-03T02:40:44;2.30;99.90
56869;DHT22;42754;0.000;0.000;2023-04-03T02:43:10;2.30;99.90
56869;DHT22;42754;0.000;0.000;2023-04-03T02:45:35;2.20;99.90
56869;DHT22;42754;0.000;0.000;2023-04-03T02:48:01;2.20;99.90
56869;DHT22;42754;0.000;0.000;2023-04-03T02:50:26;2.30;99.90
56869;DHT22;42754;0.000;0.000;2023-04-03T02:52:52;2.30;99.90
56869;DHT22;42754;0.000;0.000;2023-04-03T02:55:17;2.30;99.90
56869;DHT22;42754;0.000;0.000;2023-04-03T02:57:43;2.20;99.90
56869;DHT22;42754;0.000;0.000;2023-04-03T03:00:09;2.10;99.90
56869;DHT22;42754;0.000;0.000;2023-04-03T03:02:35;2.10;99.90
56869;DHT22;42754;0.000;0.000;2023-04-03T03:05:01;2.10;99.90
56869;DHT22;42754;0.000;0.000;2023-04-03T03:07:26;2.10;99.90
56869;DHT22;42754;0.000;0.000;2023-04-03T03:09:52;2.00;99.90
56869;DHT22;42754;0.000;0.000;2023-04-03T03:12:17;1.90;99.90
56869;DHT22;42754;0.000;0.000;2023-04-03T03:14:47;2.00;99.90
56869;DHT22;42754;0.000;0.000;2023-04-03T03:17:13;1.90;99.90
56869;DHT22;42754;0.000;0.000;2023-04-03T03:19:40;2.00;99.90
56869;DHT22;42754;0.000;0.000;2023-04-03T03:22:05;1.90;99.90
56869;DHT22;42754;0.000;0.000;2023-04-03T03:24:31;1.90;99.90
56869;DHT22;42754;0.000;0.000;2023-04-03T03:26:56;1.90;99.90
56869;DHT22;42754;0.000;0.000;2023-04-03T03:29:22;1.90;99.90
56869;DHT22;42754;0.000;0.000;2023-04-03T03:31:47;1.90;99.90
56869;DHT22;42754;0.000;0.000;2023-04-03T03:34:13;1.90;99.90
56869;DHT22;42754;0.000;0.000;2023-04-03T03:36:39;1.80;99.90
56869;DHT22;42754;0.000;0.000;2023-04-03T03:39:04;1.80;99.90
56869;DHT22;42754;0.000;0.000;2023-04-03T03:41:30;1.80;99.90
56869;DHT22;42754;0.000;0.000;2023-04-03T03:43:56;1.80;99.90
56869;DHT22;42754;0.000;0.000;2023-04-03T03:46:22;1.80;99.90
56869;DHT22;42754;0.000;0.000;2023-04-03T03:48:47;1.70;99.90
56869;DHT22;42754;0.000;0.000;2023-04-03T03:51:13;1.70;99.90
56869;DHT22;42754;0.000;0.000;2023-04-03T03:53:39;1.70;99.90
56869;DHT22;42754;0.000;0.000;2023-04-03T03:56:04;1.70;99.90
56869;DHT22;42754;0.000;0.000;2023-04-03T03:58:31;1.80;99.90
56869;DHT22;42754;0.000;0.000;2023-04-03T04:01:00;1.70;99.90
56869;DHT22;42754;0.000;0.000;2023-04-03T04:03:25;1.70;99.90
56869;DHT22;42754;0.000;0.000;2023-04-03T04:05:51;1.70;99.90
56869;DHT22;42754;0.000;0.000;2023-04-03T04:08:17;1.60;99.90
56869;DHT22;42754;0.000;0.000;2023-04-03T04:10:42;1.60;99.90
56869;DHT22;42754;0.000;0.000;2023-04-03T04:13:11;1.60;99.90
56869;DHT22;42754;0.000;0.000;2023-04-03T04:15:36;1.60;99.90
56869;DHT22;42754;0.000;0.000;2023-04-03T04:18:02;1.60;99.90
56869;DHT22;42754;0.000;0.000;2023-04-03T04:20:28;1.60;99.90
56869;DHT22;42754;0.000;0.000;2023-04-03T04:22:54;1.50;99.90
56869;DHT22;42754;0.000;0.000;2023-04-03T04:25:20;1.50;99.90
56869;DHT22;42754;0.000;0.000;2023-04-03T04:27:45;1.50;99.90
56869;DHT22;42754;0.000;0.000;2023-04-03T04:30:11;1.50;99.90
56869;DHT22;42754;0.000;0.000;2023-04-03T04:32:37;1.40;99.90
56869;DHT22;42754;0.000;0.000;2023-04-03T04:35:04;1.40;99.90
56869;DHT22;42754;0.000;0.000;2023-04-03T04:37:30;1.30;99.90
56869;DHT22;42754;0.000;0.000;2023-04-03T04:39:55;1.30;99.90
56869;DHT22;42754;0.000;0.000;2023-04-03T04:42:21;1.30;99.90
56869;DHT22;42754;0.000;0.000;2023-04-03T04:44:46;1.20;99.90
56869;DHT22;42754;0.000;0.000;2023-04-03T04:47:12;1.30;99.90
56869;DHT22;42754;0.000;0.000;2023-04-03T04:49:37;1.20;99.90
56869;DHT22;42754;0.000;0.000;2023-04-03T04:52:03;1.20;99.90
56869;DHT22;42754;0.000;0.000;2023-04-03T04:54:28;1.20;99.90
56869;DHT22;42754;0.000;0.000;2023-04-03T04:56:54;1.20;99.90
56869;DHT22;42754;0.000;0.000;2023-04-03T04:59:20;1.20;99.90
56869;DHT22;42754;0.000;0.000;2023-04-03T05:01:45;1.20;99.90
56869;DHT22;42754;0.000;0.000;2023-04-03T05:04:11;1.20;99.90
56869;DHT22;42754;0.000;0.000;2023-04-03T05:06:38;1.20;99.90
56869;DHT22;42754;0.000;0.000;2023-04-03T05:09:03;1.20;99.90
56869;DHT22;42754;0.000;0.000;2023-04-03T05:11:29;1.20;99.90
56869;DHT22;42754;0.000;0.000;2023-04-03T05:13:55;1.20;99.90
56869;DHT22;42754;0.000;0.000;2023-04-03T05:16:20;1.20;99.90
56869;DHT22;42754;0.000;0.000;2023-04-03T05:18:46;1.30;99.90
56869;DHT22;42754;0.000;0.000;2023-04-03T05:21:11;1.20;99.90
56869;DHT22;42754;0.000;0.000;2023-04-03T05:23:38;1.20;99.90
56869;DHT22;42754;0.000;0.000;2023-04-03T05:26:04;1.20;99.90
56869;DHT22;42754;0.000;0.000;2023-04-03T05:28:29;1.20;99.90
56869;DHT22;42754;0.000;0.000;2023-04-03T05:30:55;1.30;99.90
56869;DHT22;42754;0.000;0.000;2023-04-03T05:33:21;2.10;99.90
56869;DHT22;42754;0.000;0.000;2023-04-03T05:35:47;2.60;99.90
56869;DHT22;42754;0.000;0.000;2023-04-03T05:38:12;2.70;99.90
56869;DHT22;42754;0.000;0.000;2023-04-03T05:40:38;3.10;99.90
56869;DHT22;42754;0.000;0.000;2023-04-03T05:43:04;3.60;99.90
56869;DHT22;42754;0.000;0.000;2023-04-03T05:45:29;4.30;99.90
56869;DHT22;42754;0.000;0.000;2023-04-03T05:47:55;4.80;99.90
56869;DHT22;42754;0.000;0.000;2023-04-03T05:50:20;5.10;99.90
56869;DHT22;42754;0.000;0.000;2023-04-03T05:52:46;6.40;99.90
56869;DHT22;42754;0.000;0.000;2023-04-03T05:55:13;9.10;99.90
56869;DHT22;42754;0.000;0.000;2023-04-03T05:57:38;10.60;99.90
56869;DHT22;42754;0.000;0.000;2023-04-03T06:00:05;11.60;99.90
56869;DHT22;42754;0.000;0.000;2023-04-03T06:02:31;11.50;99.90
56869;DHT22;42754;0.000;0.000;2023-04-03T06:04:57;11.30;99.90
56869;DHT22;42754;0.000;0.000;2023-04-03T06:07:23;10.40;99.90
56869;DHT22;42754;0.000;0.000;2023-04-03T06:09:52;9.90;99.90
56869;DHT22;42754;0.000;0.000;2023-04-03T06:12:18;8.70;99.90
56869;DHT22;42754;0.000;0.000;2023-04-03T06:14:44;8.20;99.90
56869;DHT22;42754;0.000;0.000;2023-04-03T06:17:10;7.60;99.90
56869;DHT22;42754;0.000;0.000;2023-04-03T06:19:38;7.20;99.90
56869;DHT22;42754;0.000;0.000;2023-04-03T06:22:04;7.30;99.90
56869;DHT22;42754;0.000;0.000;2023-04-03T06:24:30;7.30;99.90
56869;DHT22;42754;0.000;0.000;2023-04-03T06:26:56;7.00;99.90
56869;DHT22;42754;0.000;0.000;2023-04-03T06:29:23;7.00;99.90
56869;DHT22;42754;0.000;0.000;2023-04-03T06:31:48;6.90;99.90
56869;DHT22;42754;0.000;0.000;2023-04-03T06:34:15;6.90;99.90
56869;DHT22;42754;0.000;0.000;2023-04-03T06:36:40;7.10;99.90
56869;DHT22;42754;0.000;0.000;2023-04-03T06:39:06;7.20;99.90
56869;DHT22;42754;0.000;0.000;2023-04-03T06:41:32;7.00;99.90
56869;DHT22;42754;0.000;0.000;2023-04-03T06:43:58;7.10;99.90
56869;DHT22;42754;0.000;0.000;2023-04-03T06:46:25;6.80;99.90
56869;DHT22;42754;0.000;0.000;2023-04-03T06:48:50;6.80;99.90
56869;DHT22;42754;0.000;0.000;2023-04-03T06:51:26;6.60;99.90
56869;DHT22;42754;0.000;0.000;2023-04-03T06:53:52;6.80;99.90
56869;DHT22;42754;0.000;0.000;2023-04-03T06:56:18;6.50;99.90
56869;DHT22;42754;0.000;0.000;2023-04-03T06:58:45;6.60;99.90
56869;DHT22;42754;0.000;0.000;2023-04-03T07:01:12;6.60;99.90
56869;DHT22;42754;0.000;0.000;2023-04-03T07:03:38;6.40;99.90
56869;DHT22;42754;0.000;0.000;2023-04-03T07:06:04;6.70;99.90
56869;DHT22;42754;0.000;0.000;2023-04-03T07:08:29;6.90;99.90
56869;DHT22;42754;0.000;0.000;2023-04-03T07:10:55;7.10;99.90
56869;DHT22;42754;0.000;0.000;2023-04-03T07:13:21;6.90;99.90
56869;DHT22;42754;0.000;0.000;2023-04-03T07:15:47;6.80;99.90
56869;DHT22;42754;0.000;0.000;2023-04-03T07:18:12;6.50;99.90
56869;DHT22;42754;0.000;0.000;2023-04-03T07:20:38;6.40;99.90
56869;DHT22;42754;0.000;0.000;2023-04-03T07:23:04;6.50;99.90
56869;DHT22;42754;0.000;0.000;2023-04-03T07:25:29;6.40;99.90
56869;DHT22;42754;0.000;0.000;2023-04-03T07:27:57;6.40;99.90
56869;DHT22;42754;0.000;0.000;2023-04-03T07:30:24;6.20;99.90
56869;DHT22;42754;0.000;0.000;2023-04-03T07:32:49;6.50;99.90
56869;DHT22;42754;0.000;0.000;2023-04-03T07:35:15;6.50;99.90
56869;DHT22;42754;0.000;0.000;2023-04-03T07:37:41;6.70;99.90
56869;DHT22;42754;0.000;0.000;2023-04-03T07:40:07;6.90;99.90
56869;DHT22;42754;0.000;0.000;2023-04-03T07:42:33;6.80;99.90
56869;DHT22;42754;0.000;0.000;2023-04-03T07:45:00;7.00;99.90
56869;DHT22;42754;0.000;0.000;2023-04-03T07:47:27;7.10;99.90
56869;DHT22;42754;0.000;0.000;2023-04-03T07:49:52;7.60;99.90
56869;DHT22;42754;0.000;0.000;2023-04-03T07:52:18;7.90;99.90
56869;DHT22;42754;0.000;0.000;2023-04-03T07:54:43;8.00;99.90
56869;DHT22;42754;0.000;0.000;2023-04-03T07:57:09;7.90;99.90
56869;DHT22;42754;0.000;0.000;2023-04-03T07:59:35;7.60;99.90
56869;DHT22;42754;0.000;0.000;2023-04-03T08:02:00;7.80;99.90
56869;DHT22;42754;0.000;0.000;2023-04-03T08:04:26;7.80;99.90
56869;DHT22;42754;0.000;0.000;2023-04-03T08:06:52;7.50;99.90
56869;DHT22;42754;0.000;0.000;2023-04-03T08:09:18;7.80;99.90
56869;DHT22;42754;0.000;0.000;2023-04-03T08:11:44;7.80;99.90
56869;DHT22;42754;0.000;0.000;2023-04-03T08:14:10;8.20;99.90
56869;DHT22;42754;0.000;0.000;2023-04-03T08:16:42;8.30;99.90
56869;DHT22;42754;0.000;0.000;2023-04-03T08:19:08;8.40;99.90
56869;DHT22;42754;0.000;0.000;2023-04-03T08:21:33;8.70;99.90
56869;DHT22;42754;0.000;0.000;2023-04-03T08:23:59;8.80;99.10
56869;DHT22;42754;0.000;0.000;2023-04-03T08:26:24;8.60;99.20
56869;DHT22;42754;0.000;0.000;2023-04-03T08:28:53;8.70;98.20
56869;DHT22;42754;0.000;0.000;2023-04-03T08:31:18;9.20;97.70
56869;DHT22;42754;0.000;0.000;2023-04-03T08:33:45;9.50;96.70
56869;DHT22;42754;0.000;0.000;2023-04-03T08:38:42;10.00;96.60
56869;DHT22;42754;0.000;0.000;2023-04-03T08:41:16;9.80;95.40
56869;DHT22;42754;0.000;0.000;2023-04-03T08:43:56;10.10;95.00
56869;DHT22;42754;0.000;0.000;2023-04-03T08:46:24;10.20;94.20
56869;DHT22;42754;0.000;0.000;2023-04-03T08:48:53;10.30;93.70
56869;DHT22;42754;0.000;0.000;2023-04-03T08:51:19;10.80;95.10
56869;DHT22;42754;0.000;0.000;2023-04-03T08:53:53;10.80;92.20
56869;DHT22;42754;0.000;0.000;2023-04-03T08:56:20;10.50;92.30
56869;DHT22;42754;0.000;0.000;2023-04-03T08:58:49;10.80;92.70
56869;DHT22;42754;0.000;0.000;2023-04-03T09:01:20;10.50;91.10
56869;DHT22;42754;0.000;0.000;2023-04-03T09:03:46;10.40;89.80
56869;DHT22;42754;0.000;0.000;2023-04-03T09:06:21;10.40;90.40
56869;DHT22;42754;0.000;0.000;2023-04-03T09:21:45;11.70;88.40
56869;DHT22;42754;0.000;0.000;2023-04-03T09:24:12;11.70;89.10
56869;DHT22;42754;0.000;0.000;2023-04-03T09:26:42;11.30;81.80
56869;DHT22;42754;0.000;0.000;2023-04-03T09:29:10;11.30;86.40
56869;DHT22;42754;0.000;0.000;2023-04-03T09:31:40;11.00;83.50
56869;DHT22;42754;0.000;0.000;2023-04-03T09:34:12;11.20;84.60
56869;DHT22;42754;0.000;0.000;2023-04-03T09:36:41;11.70;82.70
56869;DHT22;42754;0.000;0.000;2023-04-03T09:39:11;11.30;81.50
56869;DHT22;42754;0.000;0.000;2023-04-03T09:41:37;11.50;82.40
56869;DHT22;42754;0.000;0.000;2023-04-03T09:44:04;11.20;81.00
56869;DHT22;42754;0.000;0.000;2023-04-03T09:46:44;11.00;80.10
56869;DHT22;42754;0.000;0.000;2023-04-03T09:49:09;11.40;77.80
56869;DHT22;42754;0.000;0.000;2023-04-03T09:51:36;11.70;80.70
56869;DHT22;42754;0.000;0.000;2023-04-03T09:54:24;12.10;80.60
56869;DHT22;42754;0.000;0.000;2023-04-03T09:56:51;11.90;78.60
56869;DHT22;42754;0.000;0.000;2023-04-03T09:59:16;11.70;79.10
56869;DHT22;42754;0.000;0.000;2023-04-03T10:01:56;11.70;79.90
56869;DHT22;42754;0.000;0.000;2023-04-03T10:04:22;11.90;79.90
56869;DHT22;42754;0.000;0.000;2023-04-03T10:06:53;11.80;78.10
56869;DHT22;42754;0.000;0.000;2023-04-03T10:12:28;11.40;80.00
56869;DHT22;42754;0.000;0.000;2023-04-03T10:14:36;11.30;78.50
56869;DHT22;42754;0.000;0.000;2023-04-03T10:19:35;11.10;80.90
56869;DHT22;42754;0.000;0.000;2023-04-03T10:38:09;12.10;78.90
56869;DHT22;42754;0.000;0.000;2023-04-03T10:40:47;12.00;79.10
56869;DHT22;42754;0.000;0.000;2023-04-03T10:45:56;11.50;79.10
56869;DHT22;42754;0.000;0.000;2023-04-03T10:53:52;11.50;78.60
56869;DHT22;42754;0.000;0.000;2023-04-03T10:56:20;11.90;82.60
56869;DHT22;42754;0.000;0.000;2023-04-03T10:59:25;11.80;78.70
56869;DHT22;42754;0.000;0.000;2023-04-03T11:01:44;11.90;78.20
56869;DHT22;42754;0.000;0.000;2023-04-03T11:04:10;12.20;79.90
56869;DHT22;42754;0.000;0.000;2023-04-03T11:06:44;12.20;80.00
56869;DHT22;42754;0.000;0.000;2023-04-03T11:11:38;11.70;78.10
56869;DHT22;42754;0.000;0.000;2023-04-03T11:14:08;11.50;76.90
56869;DHT22;42754;0.000;0.000;2023-04-03T11:16:43;11.50;79.90
56869;DHT22;42754;0.000;0.000;2023-04-03T11:21:39;11.80;77.80
56869;DHT22;42754;0.000;0.000;2023-04-03T11:24:10;11.50;77.20
56869;DHT22;42754;0.000;0.000;2023-04-03T11:26:40;11.70;79.20
56869;DHT22;42754;0.000;0.000;2023-04-03T11:29:13;11.50;76.70
56869;DHT22;42754;0.000;0.000;2023-04-03T11:31:42;11.50;77.40
56869;DHT22;42754;0.000;0.000;2023-04-03T11:36:47;11.80;79.60
56869;DHT22;42754;0.000;0.000;2023-04-03T11:39:22;11.30;77.30
56869;DHT22;42754;0.000;0.000;2023-04-03T11:41:48;11.20;76.80
56869;DHT22;42754;0.000;0.000;2023-04-03T11:44:34;11.10;76.90
56869;DHT22;42754;0.000;0.000;2023-04-03T11:47:01;11.30;78.30
56869;DHT22;42754;0.000;0.000;2023-04-03T11:52:12;11.40;77.10
56869;DHT22;42754;0.000;0.000;2023-04-03T11:54:43;11.10;77.30
56869;DHT22;42754;0.000;0.000;2023-04-03T11:57:30;10.80;77.40
56869;DHT22;42754;0.000;0.000;2023-04-03T12:03:00;11.00;78.10
56869;DHT22;42754;0.000;0.000;2023-04-03T12:05:29;11.50;80.40
56869;DHT22;42754;0.000;0.000;2023-04-03T12:08:15;11.90;80.60
56869;DHT22;42754;0.000;0.000;2023-04-03T12:10:41;11.60;77.10
56869;DHT22;42754;0.000;0.000;2023-04-03T12:13:13;11.60;79.40
56869;DHT22;42754;0.000;0.000;2023-04-03T12:25:49;12.10;78.20
56869;DHT22;42754;0.000;0.000;2023-04-03T12:28:16;12.10;79.60
56869;DHT22;42754;0.000;0.000;2023-04-03T12:30:41;12.00;79.90
56869;DHT22;42754;0.000;0.000;2023-04-03T12:35:36;12.00;78.60
56869;DHT22;42754;0.000;0.000;2023-04-03T12:40:31;11.90;79.90
56869;DHT22;42754;0.000;0.000;2023-04-03T12:45:44;11.70;79.30
56869;DHT22;42754;0.000;0.000;2023-04-03T12:48:15;11.50;80.00
56869;DHT22;42754;0.000;0.000;2023-04-03T12:50:42;11.90;79.70
56869;DHT22;42754;0.000;0.000;2023-04-03T12:53:27;11.70;78.80
56869;DHT22;42754;0.000;0.000;2023-04-03T12:55:56;11.60;78.30
56869;DHT22;42754;0.000;0.000;2023-04-03T12:58:24;11.80;78.70
56869;DHT22;42754;0.000;0.000;2023-04-03T13:01:00;11.70;80.30
56869;DHT22;42754;0.000;0.000;2023-04-03T13:03:27;11.90;79.90
56869;DHT22;42754;0.000;0.000;2023-04-03T13:06:00;12.50;79.70
56869;DHT22;42754;0.000;0.000;2023-04-03T13:08:26;12.30;80.20
56869;DHT22;42754;0.000;0.000;2023-04-03T13:10:56;12.30;79.50
56869;DHT22;42754;0.000;0.000;2023-04-03T13:13:23;11.80;78.10
56869;DHT22;42754;0.000;0.000;2023-04-03T13:15:49;11.60;78.60
56869;DHT22;42754;0.000;0.000;2023-04-03T13:18:31;11.50;78.40
56869;DHT22;42754;0.000;0.000;2023-04-03T13:21:07;11.60;80.30
56869;DHT22;42754;0.000;0.000;2023-04-03T13:23:36;11.80;78.80
56869;DHT22;42754;0.000;0.000;2023-04-03T13:26:04;11.80;81.30
56869;DHT22;42754;0.000;0.000;2023-04-03T13:28:30;11.70;79.90
56869;DHT22;42754;0.000;0.000;2023-04-03T13:33:25;11.80;81.50
56869;DHT22;42754;0.000;0.000;2023-04-03T13:35:58;11.90;82.50
56869;DHT22;42754;0.000;0.000;2023-04-03T13:38:27;12.00;81.60
56869;DHT22;42754;0.000;0.000;2023-04-03T13:40:54;11.50;78.50
56869;DHT22;42754;0.000;0.000;2023-04-03T13:43:21;11.60;80.40
56869;DHT22;42754;0.000;0.000;2023-04-03T13:45:55;11.40;79.10
56869;DHT22;42754;0.000;0.000;2023-04-03T13:48:21;11.60;81.00
56869;DHT22;42754;0.000;0.000;2023-04-03T13:50:52;11.60;80.50
56869;DHT22;42754;0.000;0.000;2023-04-03T13:53:18;11.80;80.40
56869;DHT22;42754;0.000;0.000;2023-04-03T13:58:23;11.70;80.80
56869;DHT22;42754;0.000;0.000;2023-04-03T14:00:54;11.60;81.60
56869;DHT22;42754;0.000;0.000;2023-04-03T14:03:24;11.80;81.80
56869;DHT22;42754;0.000;0.000;2023-04-03T14:05:50;11.80;82.30
56869;DHT22;42754;0.000;0.000;2023-04-03T14:08:16;12.00;83.00
56869;DHT22;42754;0.000;0.000;2023-04-03T14:10:42;12.10;82.30
56869;DHT22;42754;0.000;0.000;2023-04-03T14:13:12;11.70;80.40
56869;DHT22;42754;0.000;0.000;2023-04-03T14:15:38;11.60;80.80
56869;DHT22;42754;0.000;0.000;2023-04-03T14:18:04;11.90;80.50
56869;DHT22;42754;0.000;0.000;2023-04-03T14:20:29;12.10;81.60
56869;DHT22;42754;0.000;0.000;2023-04-03T14:22:56;11.60;81.80
56869;DHT22;42754;0.000;0.000;2023-04-03T14:25:22;11.40;81.40
56869;DHT22;42754;0.000;0.000;2023-04-03T14:27:49;11.30;82.50
56869;DHT22;42754;0.000;0.000;2023-04-03T14:30:25;11.70;81.80
56869;DHT22;42754;0.000;0.000;2023-04-03T14:32:51;11.50;81.90
56869;DHT22;42754;0.000;0.000;2023-04-03T14:35:17;11.20;81.50
56869;DHT22;42754;0.000;0.000;2023-04-03T14:37:44;11.50;84.00
56869;DHT22;42754;0.000;0.000;2023-04-03T14:40:14;11.20;81.10
56869;DHT22;42754;0.000;0.000;2023-04-03T14:42:39;11.40;82.80
56869;DHT22;42754;0.000;0.000;2023-04-03T14:45:07;11.30;81.20
56869;DHT22;42754;0.000;0.000;2023-04-03T14:47:33;11.20;81.20
56869;DHT22;42754;0.000;0.000;2023-04-03T14:50:01;11.50;82.20
56869;DHT22;42754;0.000;0.000;2023-04-03T14:52:28;11.40;81.00
56869;DHT22;42754;0.000;0.000;2023-04-03T14:54:54;11.60;81.30
56869;DHT22;42754;0.000;0.000;2023-04-03T14:57:21;11.40;83.20
56869;DHT22;42754;0.000;0.000;2023-04-03T14:59:49;11.30;82.70
56869;DHT22;42754;0.000;0.000;2023-04-03T15:02:23;11.30;83.70
56869;DHT22;42754;0.000;0.000;2023-04-03T15:04:49;11.20;83.70
56869;DHT22;42754;0.000;0.000;2023-04-03T15:07:15;11.60;83.40
56869;DHT22;42754;0.000;0.000;2023-04-03T15:09:41;11.40;82.80
56869;DHT22;42754;0.000;0.000;2023-04-03T15:12:08;11.10;82.60
56869;DHT22;42754;0.000;0.000;2023-04-03T15:14:33;11.10;83.90
56869;DHT22;42754;0.000;0.000;2023-04-03T15:16:59;11.20;83.50
56869;DHT22;42754;0.000;0.000;2023-04-03T15:19:25;11.30;83.70
56869;DHT22;42754;0.000;0.000;2023-04-03T15:21:50;11.00;83.20
56869;DHT22;42754;0.000;0.000;2023-04-03T15:24:16;11.10;84.50
56869;DHT22;42754;0.000;0.000;2023-04-03T15:26:42;11.20;82.50
56869;DHT22;42754;0.000;0.000;2023-04-03T15:29:07;11.00;83.40
56869;DHT22;42754;0.000;0.000;2023-04-03T15:31:33;11.20;84.20
56869;DHT22;42754;0.000;0.000;2023-04-03T15:33:58;11.10;83.40
56869;DHT22;42754;0.000;0.000;2023-04-03T15:36:24;11.10;83.90
56869;DHT22;42754;0.000;0.000;2023-04-03T15:38:50;10.90;84.50
56869;DHT22;42754;0.000;0.000;2023-04-03T15:41:16;10.70;83.90
56869;DHT22;42754;0.000;0.000;2023-04-03T15:43:41;10.80;85.40
56869;DHT22;42754;0.000;0.000;2023-04-03T15:46:07;10.80;85.60
56869;DHT22;42754;0.000;0.000;2023-04-03T15:48:32;10.80;85.30
56869;DHT22;42754;0.000;0.000;2023-04-03T15:50:59;10.80;85.20
56869;DHT22;42754;0.000;0.000;2023-04-03T15:53:25;10.50;84.60
56869;DHT22;42754;0.000;0.000;2023-04-03T15:55:50;10.60;85.50
56869;DHT22;42754;0.000;0.000;2023-04-03T15:58:16;10.70;84.90
56869;DHT22;42754;0.000;0.000;2023-04-03T16:00:41;10.70;85.90
56869;DHT22;42754;0.000;0.000;2023-04-03T16:03:11;10.50;85.70
56869;DHT22;42754;0.000;0.000;2023-04-03T16:05:37;10.40;86.60
56869;DHT22;42754;0.000;0.000;2023-04-03T16:08:03;10.20;85.50
56869;DHT22;42754;0.000;0.000;2023-04-03T16:10:30;10.00;86.70
56869;DHT22;42754;0.000;0.000;2023-04-03T16:12:56;10.20;85.60
56869;DHT22;42754;0.000;0.000;2023-04-03T16:15:22;10.30;86.90
56869;DHT22;42754;0.000;0.000;2023-04-03T16:17:48;10.40;86.70
56869;DHT22;42754;0.000;0.000;2023-04-03T16:20:13;10.30;87.30
56869;DHT22;42754;0.000;0.000;2023-04-03T16:22:39;10.40;86.70
56869;DHT22;42754;0.000;0.000;2023-04-03T16:25:06;10.10;86.10
56869;DHT22;42754;0.000;0.000;2023-04-03T16:27:32;10.10;85.90
56869;DHT22;42754;0.000;0.000;2023-04-03T16:29:57;10.00;86.60
56869;DHT22;42754;0.000;0.000;2023-04-03T16:32:23;10.00;86.10
56869;DHT22;42754;0.000;0.000;2023-04-03T16:34:51;9.80;86.60
56869;DHT22;42754;0.000;0.000;2023-04-03T16:37:17;9.70;86.50
56869;DHT22;42754;0.000;0.000;2023-04-03T16:39:43;9.70;86.80
56869;DHT22;42754;0.000;0.000;2023-04-03T16:42:08;9.60;87.00
56869;DHT22;42754;0.000;0.000;2023-04-03T16:44:35;9.60;87.90
56869;DHT22;42754;0.000;0.000;2023-04-03T16:47:01;9.50;87.60
56869;DHT22;42754;0.000;0.000;2023-04-03T16:49:26;9.40;87.90
56869;DHT22;42754;0.000;0.000;2023-04-03T16:51:57;9.30;87.10
56869;DHT22;42754;0.000;0.000;2023-04-03T16:54:23;9.10;87.70
56869;DHT22;42754;0.000;0.000;2023-04-03T16:56:48;9.00;88.00
56869;DHT22;42754;0.000;0.000;2023-04-03T16:59:14;9.00;87.70
56869;DHT22;42754;0.000;0.000;2023-04-03T17:01:39;9.00;88.60
56869;DHT22;42754;0.000;0.000;2023-04-03T17:04:05;8.90;87.80
56869;DHT22;42754;0.000;0.000;2023-04-03T17:06:30;8.80;89.10
56869;DHT22;42754;0.000;0.000;2023-04-03T17:08:56;8.80;89.10
56869;DHT22;42754;0.000;0.000;2023-04-03T17:11:22;8.70;89.50
56869;DHT22;42754;0.000;0.000;2023-04-03T17:13:47;8.60;89.30
56869;DHT22;42754;0.000;0.000;2023-04-03T17:16:13;8.70;90.10
56869;DHT22;42754;0.000;0.000;2023-04-03T17:18:40;8.70;90.10
56869;DHT22;42754;0.000;0.000;2023-04-03T17:21:05;8.60;90.40
56869;DHT22;42754;0.000;0.000;2023-04-03T17:23:31;8.50;90.10